sensor_id;sensor_type;location;lat;lon;timestamp;temperature;humidity
12060;DHT22;6091;51.432;6.880;2022-09-23T00:01:14;25.00;40.60
12060;DHT22;6091;51.432;6.880;2022-09-23T00:03:42;25.00;40.50
12060;DHT22;6091;51.432;6.880;2022-09-23T00:06:22;25.00;40.60
12060;DHT22;6091;51.432;6.880;2022-09-23T00:08:50;25.00;40.60
12060;DHT22;6091;51.432;6.880;2022-09-23T00:11:20;25.00;40.60
12060;DHT22;6091;51.432;6.880;2022-09-23T00:13:52;25.00;40.60
12060;DHT22;6091;51.432;6.880;2022-09-23T00:16:24;25.00;40.60
12060;DHT22;6091;51.432;6.880;2022-09-23T00:18:54;25.00;40.60
12060;DHT22;6091;51.432;6.880;2022-09-23T00:21:22;25.00;40.00
12060;DHT22;6091;51.432;6.880;2022-09-23T00:23:49;25.00;40.60
12060;DHT22;6091;51.432;6.880;2022-09-23T00:26:18;25.00;40.60
12060;DHT22;6091;51.432;6.880;2022-09-23T00:28:50;25.00;40.60
12060;DHT22;6091;51.432;6.880;2022-09-23T00:31:20;25.00;40.60
12060;DHT22;6091;51.432;6.880;2022-09-23T00:36:22;24.90;40.60
12060;DHT22;6091;51.432;6.880;2022-09-23T00:38:50;25.00;40.60
12060;DHT22;6091;51.432;6.880;2022-09-23T00:41:17;25.00;40.70
12060;DHT22;6091;51.432;6.880;2022-09-23T00:46:39;25.00;40.70
12060;DHT22;6091;51.432;6.880;2022-09-23T00:49:31;25.00;40.70
12060;DHT22;6091;51.432;6.880;2022-09-23T00:52:04;25.00;40.10
12060;DHT22;6091;51.432;6.880;2022-09-23T00:54:36;24.90;40.60
12060;DHT22;6091;51.432;6.880;2022-09-23T00:57:04;25.00;40.70
12060;DHT22;6091;51.432;6.880;2022-09-23T00:59:34;25.00;40.70
12060;DHT22;6091;51.432;6.880;2022-09-23T01:02:02;26.50;42.00
12060;DHT22;6091;51.432;6.880;2022-09-23T01:04:30;24.90;40.60
12060;DHT22;6091;51.432;6.880;2022-09-23T01:06:57;25.00;40.70
12060;DHT22;6091;51.432;6.880;2022-09-23T01:09:24;24.90;40.60
12060;DHT22;6091;51.432;6.880;2022-09-23T01:15:09;24.90;40.70
12060;DHT22;6091;51.432;6.880;2022-09-23T01:26:12;24.90;40.70
12060;DHT22;6091;51.432;6.880;2022-09-23T01:32:14;24.90;40.70
12060;DHT22;6091;51.432;6.880;2022-09-23T01:35:19;24.90;40.80
12060;DHT22;6091;51.432;6.880;2022-09-23T01:46:29;24.90;40.80
12060;DHT22;6091;51.432;6.880;2022-09-23T01:49:28;24.90;40.70
12060;DHT22;6091;51.432;6.880;2022-09-23T01:52:11;24.90;40.80
12060;DHT22;6091;51.432;6.880;2022-09-23T01:55:19;24.90;40.80
12060;DHT22;6091;51.432;6.880;2022-09-23T01:58:06;24.90;40.80
12060;DHT22;6091;51.432;6.880;2022-09-23T02:00:51;24.90;40.30
12060;DHT22;6091;51.432;6.880;2022-09-23T02:04:12;24.80;40.80
12060;DHT22;6091;51.432;6.880;2022-09-23T02:06:20;24.90;40.80
12060;DHT22;6091;51.432;6.880;2022-09-23T02:09:14;24.80;40.70
12060;DHT22;6091;51.432;6.880;2022-09-23T02:11:46;24.90;40.20
12060;DHT22;6091;51.432;6.880;2022-09-23T02:14:24;24.80;40.70
12060;DHT22;6091;51.432;6.880;2022-09-23T02:17:00;24.90;40.90
12060;DHT22;6091;51.432;6.880;2022-09-23T02:19:40;24.90;40.90
12060;DHT22;6091;51.432;6.880;2022-09-23T02:22:24;24.90;40.90
12060;DHT22;6091;51.432;6.880;2022-09-23T02:24:56;24.80;40.80
12060;DHT22;6091;51.432;6.880;2022-09-23T02:27:50;24.80;40.80
12060;DHT22;6091;51.432;6.880;2022-09-23T02:30:27;24.90;40.90
12060;DHT22;6091;51.432;6.880;2022-09-23T02:33:17;24.90;40.90
12060;DHT22;6091;51.432;6.880;2022-09-23T02:35:54;24.90;40.90
12060;DHT22;6091;51.432;6.880;2022-09-23T02:38:44;24.80;40.80
12060;DHT22;6091;51.432;6.880;2022-09-23T02:41:46;24.80;40.80
12060;DHT22;6091;51.432;6.880;2022-09-23T02:44:22;24.80;40.90
12060;DHT22;6091;51.432;6.880;2022-09-23T02:46:50;24.80;40.80
12060;DHT22;6091;51.432;6.880;2022-09-23T02:49:27;24.80;40.80
12060;DHT22;6091;51.432;6.880;2022-09-23T02:51:56;24.80;40.90
12060;DHT22;6091;51.432;6.880;2022-09-23T02:54:30;24.80;40.80
12060;DHT22;6091;51.432;6.880;2022-09-23T02:57:00;24.80;40.90
12060;DHT22;6091;51.432;6.880;2022-09-23T02:59:31;24.80;40.80
12060;DHT22;6091;51.432;6.880;2022-09-23T03:10:23;24.80;40.90
12060;DHT22;6091;51.432;6.880;2022-09-23T03:18:38;24.80;40.90
12060;DHT22;6091;51.432;6.880;2022-09-23T03:21:17;24.80;40.90
12060;DHT22;6091;51.432;6.880;2022-09-23T03:23:53;24.80;40.90
12060;DHT22;6091;51.432;6.880;2022-09-23T03:26:30;24.80;40.90
12060;DHT22;6091;51.432;6.880;2022-09-23T03:29:06;24.80;40.90
12060;DHT22;6091;51.432;6.880;2022-09-23T03:31:37;24.80;40.30
12060;DHT22;6091;51.432;6.880;2022-09-23T03:34:15;24.70;40.90
12060;DHT22;6091;51.432;6.880;2022-09-23T03:37:02;24.80;40.90
12060;DHT22;6091;51.432;6.880;2022-09-23T03:39:39;24.80;40.90
12060;DHT22;6091;51.432;6.880;2022-09-23T03:42:17;24.80;40.90
12060;DHT22;6091;51.432;6.880;2022-09-23T03:44:50;24.80;40.90
12060;DHT22;6091;51.432;6.880;2022-09-23T03:47:21;24.70;40.90
12060;DHT22;6091;51.432;6.880;2022-09-23T03:49:50;24.70;40.90
12060;DHT22;6091;51.432;6.880;2022-09-23T03:52:20;24.70;40.90
12060;DHT22;6091;51.432;6.880;2022-09-23T03:54:49;24.70;40.90
12060;DHT22;6091;51.432;6.880;2022-09-23T03:57:18;24.70;41.00
12060;DHT22;6091;51.432;6.880;2022-09-23T03:59:50;24.70;40.90
12060;DHT22;6091;51.432;6.880;2022-09-23T04:02:18;24.70;40.90
12060;DHT22;6091;51.432;6.880;2022-09-23T04:04:46;24.70;40.90
12060;DHT22;6091;51.432;6.880;2022-09-23T04:07:13;24.70;41.50
12060;DHT22;6091;51.432;6.880;2022-09-23T04:09:40;24.70;40.90
12060;DHT22;6091;51.432;6.880;2022-09-23T04:12:12;24.70;40.90
12060;DHT22;6091;51.432;6.880;2022-09-23T04:14:42;24.70;40.90
12060;DHT22;6091;51.432;6.880;2022-09-23T04:17:11;24.70;40.90
12060;DHT22;6091;51.432;6.880;2022-09-23T04:19:38;24.70;40.90
12060;DHT22;6091;51.432;6.880;2022-09-23T04:22:06;24.70;40.90
12060;DHT22;6091;51.432;6.880;2022-09-23T04:24:33;24.70;41.50
12060;DHT22;6091;51.432;6.880;2022-09-23T04:27:01;24.70;40.90
12060;DHT22;6091;51.432;6.880;2022-09-23T04:29:29;24.70;41.00
12060;DHT22;6091;51.432;6.880;2022-09-23T04:31:56;24.70;41.00
12060;DHT22;6091;51.432;6.880;2022-09-23T04:34:23;24.70;41.00
12060;DHT22;6091;51.432;6.880;2022-09-23T04:36:50;24.70;41.00
12060;DHT22;6091;51.432;6.880;2022-09-23T04:39:17;24.70;41.00
12060;DHT22;6091;51.432;6.880;2022-09-23T04:41:44;24.70;41.00
12060;DHT22;6091;51.432;6.880;2022-09-23T04:44:12;24.70;41.10
12060;DHT22;6091;51.432;6.880;2022-09-23T04:46:41;24.70;41.00
12060;DHT22;6091;51.432;6.880;2022-09-23T04:49:10;24.60;40.90
12060;DHT22;6091;51.432;6.880;2022-09-23T04:51:38;24.70;41.10
12060;DHT22;6091;51.432;6.880;2022-09-23T04:54:09;24.70;41.00
12060;DHT22;6091;51.432;6.880;2022-09-23T04:56:38;24.70;41.00
12060;DHT22;6091;51.432;6.880;2022-09-23T04:59:05;24.20;40.60
12060;DHT22;6091;51.432;6.880;2022-09-23T05:01:33;24.70;41.10
12060;DHT22;6091;51.432;6.880;2022-09-23T05:04:05;24.60;40.90
12060;DHT22;6091;51.432;6.880;2022-09-23T05:06:35;24.70;41.00
12060;DHT22;6091;51.432;6.880;2022-09-23T05:09:07;24.60;40.90
12060;DHT22;6091;51.432;6.880;2022-09-23T05:11:34;24.70;41.10
12060;DHT22;6091;51.432;6.880;2022-09-23T05:14:01;24.70;41.10
12060;DHT22;6091;51.432;6.880;2022-09-23T05:16:28;24.60;41.00
12060;DHT22;6091;51.432;6.880;2022-09-23T05:18:56;24.60;41.00
12060;DHT22;6091;51.432;6.880;2022-09-23T05:21:25;24.60;41.00
12060;DHT22;6091;51.432;6.880;2022-09-23T05:23:58;24.60;41.00
12060;DHT22;6091;51.432;6.880;2022-09-23T05:26:28;24.60;41.00
12060;DHT22;6091;51.432;6.880;2022-09-23T05:28:57;24.60;41.10
12060;DHT22;6091;51.432;6.880;2022-09-23T05:31:26;24.60;41.00
12060;DHT22;6091;51.432;6.880;2022-09-23T05:34:00;24.60;41.20
12060;DHT22;6091;51.432;6.880;2022-09-23T05:36:31;24.60;41.30
12060;DHT22;6091;51.432;6.880;2022-09-23T05:39:05;24.60;41.30
12060;DHT22;6091;51.432;6.880;2022-09-23T05:41:33;24.60;41.40
12060;DHT22;6091;51.432;6.880;2022-09-23T05:44:01;24.60;41.40
12060;DHT22;6091;51.432;6.880;2022-09-23T05:46:29;24.70;41.60
12060;DHT22;6091;51.432;6.880;2022-09-23T05:48:58;24.70;41.70
12060;DHT22;6091;51.432;6.880;2022-09-23T05:51:30;24.70;41.70
12060;DHT22;6091;51.432;6.880;2022-09-23T05:54:00;24.70;41.70
12060;DHT22;6091;51.432;6.880;2022-09-23T05:56:32;24.70;41.80
12060;DHT22;6091;51.432;6.880;2022-09-23T05:59:01;24.70;41.80
12060;DHT22;6091;51.432;6.880;2022-09-23T06:01:32;24.70;41.80
12060;DHT22;6091;51.432;6.880;2022-09-23T06:04:03;24.70;41.90
12060;DHT22;6091;51.432;6.880;2022-09-23T06:06:35;24.80;41.90
12060;DHT22;6091;51.432;6.880;2022-09-23T06:09:04;24.80;41.90
12060;DHT22;6091;51.432;6.880;2022-09-23T06:11:34;24.80;41.90
12060;DHT22;6091;51.432;6.880;2022-09-23T06:14:02;24.80;41.90
12060;DHT22;6091;51.432;6.880;2022-09-23T06:16:35;24.80;41.80
12060;DHT22;6091;51.432;6.880;2022-09-23T06:19:02;24.80;42.00
12060;DHT22;6091;51.432;6.880;2022-09-23T06:21:38;24.80;41.70
12060;DHT22;6091;51.432;6.880;2022-09-23T06:24:06;24.80;41.80
12060;DHT22;6091;51.432;6.880;2022-09-23T06:26:35;24.80;41.70
12060;DHT22;6091;51.432;6.880;2022-09-23T06:29:09;24.80;41.70
12060;DHT22;6091;51.432;6.880;2022-09-23T06:31:37;24.80;41.70
12060;DHT22;6091;51.432;6.880;2022-09-23T06:34:10;24.80;41.70
12060;DHT22;6091;51.432;6.880;2022-09-23T06:36:41;24.80;41.80
12060;DHT22;6091;51.432;6.880;2022-09-23T06:39:12;24.80;41.70
12060;DHT22;6091;51.432;6.880;2022-09-23T06:41:40;24.80;41.60
12060;DHT22;6091;51.432;6.880;2022-09-23T06:44:07;24.80;41.70
12060;DHT22;6091;51.432;6.880;2022-09-23T06:46:34;24.80;41.70
12060;DHT22;6091;51.432;6.880;2022-09-23T06:49:02;24.80;41.70
12060;DHT22;6091;51.432;6.880;2022-09-23T06:51:29;24.80;42.00
12060;DHT22;6091;51.432;6.880;2022-09-23T06:53:56;24.90;41.90
12060;DHT22;6091;51.432;6.880;2022-09-23T06:56:23;24.90;41.90
12060;DHT22;6091;51.432;6.880;2022-09-23T06:58:51;24.90;41.90
12060;DHT22;6091;51.432;6.880;2022-09-23T07:01:18;24.90;42.00
12060;DHT22;6091;51.432;6.880;2022-09-23T07:03:46;25.00;41.40
12060;DHT22;6091;51.432;6.880;2022-09-23T07:06:16;24.90;42.00
12060;DHT22;6091;51.432;6.880;2022-09-23T07:08:44;24.90;42.00
12060;DHT22;6091;51.432;6.880;2022-09-23T07:11:15;24.70;41.30
12060;DHT22;6091;51.432;6.880;2022-09-23T07:13:44;24.90;42.10
12060;DHT22;6091;51.432;6.880;2022-09-23T07:16:11;24.90;42.10
12060;DHT22;6091;51.432;6.880;2022-09-23T07:18:39;25.00;41.70
12060;DHT22;6091;51.432;6.880;2022-09-23T07:21:11;25.00;42.30
12060;DHT22;6091;51.432;6.880;2022-09-23T07:23:41;25.00;42.40
12060;DHT22;6091;51.432;6.880;2022-09-23T07:26:14;25.00;42.40
12060;DHT22;6091;51.432;6.880;2022-09-23T07:28:43;25.00;42.40
12060;DHT22;6091;51.432;6.880;2022-09-23T07:31:16;25.10;42.50
12060;DHT22;6091;51.432;6.880;2022-09-23T07:34:02;25.10;42.60
12060;DHT22;6091;51.432;6.880;2022-09-23T07:38:58;25.10;41.70
12060;DHT22;6091;51.432;6.880;2022-09-23T07:41:30;25.10;42.20
12060;DHT22;6091;51.432;6.880;2022-09-23T07:44:01;25.20;42.10
12060;DHT22;6091;51.432;6.880;2022-09-23T07:46:30;25.20;41.80
12060;DHT22;6091;51.432;6.880;2022-09-23T07:49:00;25.20;41.50
12060;DHT22;6091;51.432;6.880;2022-09-23T07:51:31;25.20;41.30
12060;DHT22;6091;51.432;6.880;2022-09-23T07:54:04;25.20;40.90
12060;DHT22;6091;51.432;6.880;2022-09-23T07:56:37;25.20;40.60
12060;DHT22;6091;51.432;6.880;2022-09-23T07:59:05;25.20;40.40
12060;DHT22;6091;51.432;6.880;2022-09-23T08:01:40;25.20;39.80
12060;DHT22;6091;51.432;6.880;2022-09-23T08:06:57;25.20;39.50
12060;DHT22;6091;51.432;6.880;2022-09-23T08:09:31;25.20;39.80
12060;DHT22;6091;51.432;6.880;2022-09-23T08:12:00;25.20;39.60
12060;DHT22;6091;51.432;6.880;2022-09-23T08:14:27;25.10;39.70
12060;DHT22;6091;51.432;6.880;2022-09-23T08:16:57;25.10;39.60
12060;DHT22;6091;51.432;6.880;2022-09-23T08:19:25;25.10;39.60
12060;DHT22;6091;51.432;6.880;2022-09-23T08:21:52;25.10;39.60
12060;DHT22;6091;51.432;6.880;2022-09-23T08:24:21;25.00;39.60
12060;DHT22;6091;51.432;6.880;2022-09-23T08:26:53;25.00;39.60
12060;DHT22;6091;51.432;6.880;2022-09-23T08:29:21;25.10;39.60
12060;DHT22;6091;51.432;6.880;2022-09-23T08:31:50;25.10;39.60
12060;DHT22;6091;51.432;6.880;2022-09-23T08:34:19;25.00;39.70
12060;DHT22;6091;51.432;6.880;2022-09-23T08:36:47;25.00;39.60
12060;DHT22;6091;51.432;6.880;2022-09-23T08:39:16;25.00;39.60
12060;DHT22;6091;51.432;6.880;2022-09-23T08:42:10;25.10;39.10
12060;DHT22;6091;51.432;6.880;2022-09-23T08:47:38;25.10;39.50
12060;DHT22;6091;51.432;6.880;2022-09-23T08:50:40;25.10;39.50
12060;DHT22;6091;51.432;6.880;2022-09-23T08:53:31;25.10;39.40
12060;DHT22;6091;51.432;6.880;2022-09-23T08:56:21;25.10;39.40
12060;DHT22;6091;51.432;6.880;2022-09-23T09:01:56;25.10;39.20
12060;DHT22;6091;51.432;6.880;2022-09-23T09:04:40;25.10;39.50
12060;DHT22;6091;51.432;6.880;2022-09-23T09:07:14;25.10;39.10
12060;DHT22;6091;51.432;6.880;2022-09-23T09:10:34;25.10;39.60
12060;DHT22;6091;51.432;6.880;2022-09-23T09:13:31;25.20;39.50
12060;DHT22;6091;51.432;6.880;2022-09-23T09:16:24;25.10;39.50
12060;DHT22;6091;51.432;6.880;2022-09-23T09:25:38;25.20;39.50
12060;DHT22;6091;51.432;6.880;2022-09-23T09:31:00;25.10;39.70
12060;DHT22;6091;51.432;6.880;2022-09-23T09:33:49;25.20;39.80
12060;DHT22;6091;51.432;6.880;2022-09-23T09:36:56;25.20;39.60
12060;DHT22;6091;51.432;6.880;2022-09-23T09:39:34;25.20;39.60
12060;DHT22;6091;51.432;6.880;2022-09-23T09:42:03;25.20;39.70
12060;DHT22;6091;51.432;6.880;2022-09-23T09:53:29;25.30;39.60
12060;DHT22;6091;51.432;6.880;2022-09-23T09:56:10;25.30;39.70
12060;DHT22;6091;51.432;6.880;2022-09-23T09:59:28;25.30;39.90
12060;DHT22;6091;51.432;6.880;2022-09-23T10:01:37;25.30;39.60
12060;DHT22;6091;51.432;6.880;2022-09-23T10:04:18;25.30;39.80
12060;DHT22;6091;51.432;6.880;2022-09-23T10:07:12;25.30;39.70
12060;DHT22;6091;51.432;6.880;2022-09-23T10:09:51;25.40;39.50
12060;DHT22;6091;51.432;6.880;2022-09-23T10:12:23;25.60;39.70
12060;DHT22;6091;51.432;6.880;2022-09-23T10:14:55;25.40;39.90
12060;DHT22;6091;51.432;6.880;2022-09-23T10:17:32;25.50;39.70
12060;DHT22;6091;51.432;6.880;2022-09-23T10:20:13;25.50;39.60
12060;DHT22;6091;51.432;6.880;2022-09-23T10:22:41;25.50;40.20
12060;DHT22;6091;51.432;6.880;2022-09-23T10:25:15;25.60;39.20
12060;DHT22;6091;51.432;6.880;2022-09-23T10:27:46;25.50;39.60
12060;DHT22;6091;51.432;6.880;2022-09-23T10:30:26;25.60;39.70
12060;DHT22;6091;51.432;6.880;2022-09-23T10:32:54;25.60;39.50
12060;DHT22;6091;51.432;6.880;2022-09-23T10:35:24;26.20;40.00
12060;DHT22;6091;51.432;6.880;2022-09-23T10:37:52;25.60;39.60
12060;DHT22;6091;51.432;6.880;2022-09-23T10:40:40;25.70;39.70
12060;DHT22;6091;51.432;6.880;2022-09-23T10:43:51;25.70;39.40
12060;DHT22;6091;51.432;6.880;2022-09-23T10:46:50;25.70;39.50
12060;DHT22;6091;51.432;6.880;2022-09-23T10:49:55;25.80;39.50
12060;DHT22;6091;51.432;6.880;2022-09-23T10:55:51;25.90;39.70
12060;DHT22;6091;51.432;6.880;2022-09-23T11:01:50;26.00;39.50
12060;DHT22;6091;51.432;6.880;2022-09-23T11:05:03;26.10;39.60
12060;DHT22;6091;51.432;6.880;2022-09-23T11:28:43;26.90;39.60
12060;DHT22;6091;51.432;6.880;2022-09-23T11:37:18;27.40;39.50
12060;DHT22;6091;51.432;6.880;2022-09-23T11:39:55;27.50;39.10
12060;DHT22;6091;51.432;6.880;2022-09-23T11:42:34;27.60;39.30
12060;DHT22;6091;51.432;6.880;2022-09-23T11:45:16;27.70;39.20
12060;DHT22;6091;51.432;6.880;2022-09-23T11:48:12;27.90;39.30
12060;DHT22;6091;51.432;6.880;2022-09-23T11:53:50;28.20;38.70
12060;DHT22;6091;51.432;6.880;2022-09-23T11:56:29;28.40;38.70
12060;DHT22;6091;51.432;6.880;2022-09-23T12:25:52;28.40;37.30
12060;DHT22;6091;51.432;6.880;2022-09-23T12:28:33;28.40;37.40
12060;DHT22;6091;51.432;6.880;2022-09-23T12:31:08;28.30;37.20
12060;DHT22;6091;51.432;6.880;2022-09-23T12:33:51;28.30;37.40
12060;DHT22;6091;51.432;6.880;2022-09-23T12:36:28;28.20;37.40
12060;DHT22;6091;51.432;6.880;2022-09-23T12:41:38;28.10;37.30
12060;DHT22;6091;51.432;6.880;2022-09-23T12:44:12;28.10;37.20
12060;DHT22;6091;51.432;6.880;2022-09-23T12:49:51;27.90;37.00
12060;DHT22;6091;51.432;6.880;2022-09-23T12:54:53;27.80;37.20
12060;DHT22;6091;51.432;6.880;2022-09-23T13:02:41;27.50;37.10
12060;DHT22;6091;51.432;6.880;2022-09-23T13:05:23;27.40;37.10
12060;DHT22;6091;51.432;6.880;2022-09-23T13:08:18;27.40;37.10
12060;DHT22;6091;51.432;6.880;2022-09-23T13:11:02;27.30;37.20
12060;DHT22;6091;51.432;6.880;2022-09-23T13:13:40;27.30;37.30
12060;DHT22;6091;51.432;6.880;2022-09-23T13:18:54;27.10;37.20
12060;DHT22;6091;51.432;6.880;2022-09-23T13:27:10;27.00;37.30
12060;DHT22;6091;51.432;6.880;2022-09-23T13:29:56;27.00;37.40
12060;DHT22;6091;51.432;6.880;2022-09-23T13:32:28;27.00;37.00
12060;DHT22;6091;51.432;6.880;2022-09-23T13:35:04;26.90;37.50
12060;DHT22;6091;51.432;6.880;2022-09-23T13:37:45;26.90;37.50
12060;DHT22;6091;51.432;6.880;2022-09-23T13:40:23;26.80;37.40
12060;DHT22;6091;51.432;6.880;2022-09-23T13:43:03;26.80;37.50
12060;DHT22;6091;51.432;6.880;2022-09-23T13:45:39;26.80;37.50
12060;DHT22;6091;51.432;6.880;2022-09-23T13:48:12;26.70;37.50
12060;DHT22;6091;51.432;6.880;2022-09-23T13:50:48;26.70;37.60
12060;DHT22;6091;51.432;6.880;2022-09-23T13:53:28;26.70;37.70
12060;DHT22;6091;51.432;6.880;2022-09-23T13:56:11;26.70;37.70
12060;DHT22;6091;51.432;6.880;2022-09-23T13:58:40;26.60;37.10
12060;DHT22;6091;51.432;6.880;2022-09-23T14:01:29;26.60;37.70
12060;DHT22;6091;51.432;6.880;2022-09-23T14:03:58;26.60;37.70
12060;DHT22;6091;51.432;6.880;2022-09-23T14:06:28;26.60;37.70
12060;DHT22;6091;51.432;6.880;2022-09-23T14:09:05;26.60;37.70
12060;DHT22;6091;51.432;6.880;2022-09-23T14:11:33;26.60;37.80
12060;DHT22;6091;51.432;6.880;2022-09-23T14:14:02;26.50;37.70
12060;DHT22;6091;51.432;6.880;2022-09-23T14:16:40;26.50;37.70
12060;DHT22;6091;51.432;6.880;2022-09-23T14:19:16;26.50;37.80
12060;DHT22;6091;51.432;6.880;2022-09-23T14:21:49;26.60;37.30
12060;DHT22;6091;51.432;6.880;2022-09-23T14:27:03;26.50;37.80
12060;DHT22;6091;51.432;6.880;2022-09-23T14:29:35;26.50;37.80
12060;DHT22;6091;51.432;6.880;2022-09-23T14:32:13;26.50;37.80
12060;DHT22;6091;51.432;6.880;2022-09-23T14:34:51;26.50;37.80
12060;DHT22;6091;51.432;6.880;2022-09-23T14:37:43;26.50;37.80
12060;DHT22;6091;51.432;6.880;2022-09-23T14:40:32;26.40;37.80
12060;DHT22;6091;51.432;6.880;2022-09-23T14:45:45;26.40;37.80
12060;DHT22;6091;51.432;6.880;2022-09-23T14:48:24;26.40;37.30
12060;DHT22;6091;51.432;6.880;2022-09-23T14:50:56;26.40;37.90
12060;DHT22;6091;51.432;6.880;2022-09-23T14:53:43;26.40;37.80
12060;DHT22;6091;51.432;6.880;2022-09-23T14:56:21;26.40;37.90
12060;DHT22;6091;51.432;6.880;2022-09-23T14:58:53;26.40;38.00
12060;DHT22;6091;51.432;6.880;2022-09-23T15:04:27;26.40;37.90
12060;DHT22;6091;51.432;6.880;2022-09-23T15:07:16;26.40;37.90
12060;DHT22;6091;51.432;6.880;2022-09-23T15:09:46;26.40;37.90
12060;DHT22;6091;51.432;6.880;2022-09-23T15:12:17;26.30;37.90
12060;DHT22;6091;51.432;6.880;2022-09-23T15:14:53;26.30;37.90
12060;DHT22;6091;51.432;6.880;2022-09-23T15:20:06;26.30;38.00
12060;DHT22;6091;51.432;6.880;2022-09-23T15:22:43;26.30;38.10
12060;DHT22;6091;51.432;6.880;2022-09-23T15:25:39;26.30;38.10
12060;DHT22;6091;51.432;6.880;2022-09-23T15:30:39;26.20;38.20
12060;DHT22;6091;51.432;6.880;2022-09-23T15:33:13;26.30;38.50
12060;DHT22;6091;51.432;6.880;2022-09-23T15:35:45;26.30;38.20
12060;DHT22;6091;51.432;6.880;2022-09-23T15:38:13;26.30;38.30
12060;DHT22;6091;51.432;6.880;2022-09-23T15:40:43;26.20;37.60
12060;DHT22;6091;51.432;6.880;2022-09-23T15:43:19;26.30;38.90
12060;DHT22;6091;51.432;6.880;2022-09-23T15:45:55;26.30;38.30
12060;DHT22;6091;51.432;6.880;2022-09-23T15:48:30;26.30;38.40
12060;DHT22;6091;51.432;6.880;2022-09-23T15:51:06;26.30;38.40
12060;DHT22;6091;51.432;6.880;2022-09-23T15:53:35;26.20;38.30
12060;DHT22;6091;51.432;6.880;2022-09-23T15:56:05;26.30;38.40
12060;DHT22;6091;51.432;6.880;2022-09-23T15:58:32;26.20;38.30
12060;DHT22;6091;51.432;6.880;2022-09-23T16:00:59;26.20;38.40
12060;DHT22;6091;51.432;6.880;2022-09-23T16:03:27;26.30;38.50
12060;DHT22;6091;51.432;6.880;2022-09-23T16:05:56;26.30;38.50
12060;DHT22;6091;51.432;6.880;2022-09-23T16:08:27;26.20;38.40
12060;DHT22;6091;51.432;6.880;2022-09-23T16:10:55;26.20;38.40
12060;DHT22;6091;51.432;6.880;2022-09-23T16:13:23;26.30;38.50
12060;DHT22;6091;51.432;6.880;2022-09-23T16:15:50;26.20;38.40
12060;DHT22;6091;51.432;6.880;2022-09-23T16:18:18;26.20;38.40
12060;DHT22;6091;51.432;6.880;2022-09-23T16:20:45;26.20;38.40
12060;DHT22;6091;51.432;6.880;2022-09-23T16:23:26;26.30;38.50
12060;DHT22;6091;51.432;6.880;2022-09-23T16:26:12;26.20;38.50
12060;DHT22;6091;51.432;6.880;2022-09-23T16:28:53;26.20;38.40
12060;DHT22;6091;51.432;6.880;2022-09-23T16:31:23;26.20;38.40
12060;DHT22;6091;51.432;6.880;2022-09-23T16:33:52;26.20;38.40
12060;DHT22;6091;51.432;6.880;2022-09-23T16:38:57;26.20;38.60
12060;DHT22;6091;51.432;6.880;2022-09-23T16:41:26;26.20;38.50
12060;DHT22;6091;51.432;6.880;2022-09-23T16:43:55;26.20;38.50
12060;DHT22;6091;51.432;6.880;2022-09-23T16:46:22;26.20;38.40
12060;DHT22;6091;51.432;6.880;2022-09-23T16:48:49;26.10;38.80
12060;DHT22;6091;51.432;6.880;2022-09-23T16:51:19;26.10;38.40
12060;DHT22;6091;51.432;6.880;2022-09-23T16:53:49;26.10;38.50
12060;DHT22;6091;51.432;6.880;2022-09-23T16:56:18;26.10;38.50
12060;DHT22;6091;51.432;6.880;2022-09-23T16:58:54;26.10;38.50
12060;DHT22;6091;51.432;6.880;2022-09-23T17:01:26;26.10;38.50
12060;DHT22;6091;51.432;6.880;2022-09-23T17:04:15;26.10;38.60
12060;DHT22;6091;51.432;6.880;2022-09-23T17:06:45;26.10;38.60
12060;DHT22;6091;51.432;6.880;2022-09-23T17:09:18;26.10;38.60
12060;DHT22;6091;51.432;6.880;2022-09-23T17:14:37;26.20;38.80
12060;DHT22;6091;51.432;6.880;2022-09-23T17:17:06;26.20;38.80
12060;DHT22;6091;51.432;6.880;2022-09-23T17:19:32;26.10;38.70
12060;DHT22;6091;51.432;6.880;2022-09-23T17:22:00;26.10;38.70
12060;DHT22;6091;51.432;6.880;2022-09-23T17:24:27;26.10;38.80
12060;DHT22;6091;51.432;6.880;2022-09-23T17:26:54;26.10;38.80
12060;DHT22;6091;51.432;6.880;2022-09-23T17:29:21;26.10;38.80
12060;DHT22;6091;51.432;6.880;2022-09-23T17:31:48;26.10;38.80
12060;DHT22;6091;51.432;6.880;2022-09-23T17:34:15;26.10;38.80
12060;DHT22;6091;51.432;6.880;2022-09-23T17:36:44;26.20;38.90
12060;DHT22;6091;51.432;6.880;2022-09-23T17:39:11;26.10;38.90
12060;DHT22;6091;51.432;6.880;2022-09-23T17:41:39;26.10;38.90
12060;DHT22;6091;51.432;6.880;2022-09-23T17:44:09;26.10;38.90
12060;DHT22;6091;51.432;6.880;2022-09-23T17:46:36;26.10;39.00
12060;DHT22;6091;51.432;6.880;2022-09-23T17:49:03;26.10;38.90
12060;DHT22;6091;51.432;6.880;2022-09-23T17:51:32;26.10;38.90
12060;DHT22;6091;51.432;6.880;2022-09-23T17:53:59;26.10;38.90
12060;DHT22;6091;51.432;6.880;2022-09-23T17:56:26;26.10;39.00
12060;DHT22;6091;51.432;6.880;2022-09-23T17:58:59;26.20;39.00
12060;DHT22;6091;51.432;6.880;2022-09-23T18:01:28;26.10;39.00
12060;DHT22;6091;51.432;6.880;2022-09-23T18:03:57;26.10;39.00
12060;DHT22;6091;51.432;6.880;2022-09-23T18:06:28;26.10;39.00
12060;DHT22;6091;51.432;6.880;2022-09-23T18:09:03;26.10;39.00
12060;DHT22;6091;51.432;6.880;2022-09-23T18:11:34;26.10;39.00
12060;DHT22;6091;51.432;6.880;2022-09-23T18:16:39;26.20;39.10
12060;DHT22;6091;51.432;6.880;2022-09-23T18:19:11;26.20;39.10
12060;DHT22;6091;51.432;6.880;2022-09-23T18:21:43;26.20;39.20
12060;DHT22;6091;51.432;6.880;2022-09-23T18:24:12;26.20;39.20
12060;DHT22;6091;51.432;6.880;2022-09-23T18:26:59;26.10;39.20
12060;DHT22;6091;51.432;6.880;2022-09-23T18:29:27;26.20;39.20
12060;DHT22;6091;51.432;6.880;2022-09-23T18:31:54;26.20;38.60
12060;DHT22;6091;51.432;6.880;2022-09-23T18:34:21;26.10;39.20
12060;DHT22;6091;51.432;6.880;2022-09-23T18:36:49;26.20;39.20
12060;DHT22;6091;51.432;6.880;2022-09-23T18:39:16;26.20;39.20
12060;DHT22;6091;51.432;6.880;2022-09-23T18:41:47;26.10;39.10
12060;DHT22;6091;51.432;6.880;2022-09-23T18:44:15;26.10;39.10
12060;DHT22;6091;51.432;6.880;2022-09-23T18:46:42;26.10;39.10
12060;DHT22;6091;51.432;6.880;2022-09-23T18:49:10;26.10;39.10
12060;DHT22;6091;51.432;6.880;2022-09-23T18:51:56;26.10;39.10
12060;DHT22;6091;51.432;6.880;2022-09-23T18:54:26;26.10;39.10
12060;DHT22;6091;51.432;6.880;2022-09-23T18:56:54;26.10;39.20
12060;DHT22;6091;51.432;6.880;2022-09-23T18:59:23;26.10;39.10
12060;DHT22;6091;51.432;6.880;2022-09-23T19:01:55;26.10;39.10
12060;DHT22;6091;51.432;6.880;2022-09-23T19:04:24;26.10;39.10
12060;DHT22;6091;51.432;6.880;2022-09-23T19:06:53;26.00;38.50
12060;DHT22;6091;51.432;6.880;2022-09-23T19:09:22;26.00;39.10
12060;DHT22;6091;51.432;6.880;2022-09-23T19:11:50;26.00;39.10
12060;DHT22;6091;51.432;6.880;2022-09-23T19:14:18;26.00;39.10
12060;DHT22;6091;51.432;6.880;2022-09-23T19:16:46;26.00;39.10
12060;DHT22;6091;51.432;6.880;2022-09-23T19:19:16;26.00;39.10
12060;DHT22;6091;51.432;6.880;2022-09-23T19:21:44;26.00;39.10
12060;DHT22;6091;51.432;6.880;2022-09-23T19:24:11;26.00;39.10
12060;DHT22;6091;51.432;6.880;2022-09-23T19:26:42;26.00;39.10